sensor_id;sensor_type;location;lat;lon;timestamp;P1;durP1;ratioP1;P2;durP2;ratioP2
30647;SDS011;17683;53.360;9.736;2022-11-20T00:01:15;12.52;;;6.47;;
30647;SDS011;17683;53.360;9.736;2022-11-20T00:03:48;8.07;;;6.03;;
30647;SDS011;17683;53.360;9.736;2022-11-20T00:06:17;8.10;;;6.30;;
30647;SDS011;17683;53.360;9.736;2022-11-20T00:08:44;7.68;;;5.63;;
30647;SDS011;17683;53.360;9.736;2022-11-20T00:11:11;7.35;;;5.45;;
30647;SDS011;17683;53.360;9.736;2022-11-20T00:13:38;9.60;;;6.63;;
30647;SDS011;17683;53.360;9.736;2022-11-20T00:16:05;9.50;;;6.25;;
30647;SDS011;17683;53.360;9.736;2022-11-20T00:18:33;8.52;;;6.20;;
30647;SDS011;17683;53.360;9.736;2022-11-20T00:21:00;9.13;;;6.38;;
30647;SDS011;17683;53.360;9.736;2022-11-20T00:23:27;9.75;;;5.60;;
30647;SDS011;17683;53.360;9.736;2022-11-20T00:25:53;9.23;;;6.38;;
30647;SDS011;17683;53.360;9.736;2022-11-20T00:28:19;9.00;;;5.80;;
30647;SDS011;17683;53.360;9.736;2022-11-20T00:30:44;10.55;;;6.53;;
30647;SDS011;17683;53.360;9.736;2022-11-20T00:33:10;9.52;;;5.97;;
30647;SDS011;17683;53.360;9.736;2022-11-20T00:35:36;8.38;;;5.68;;
30647;SDS011;17683;53.360;9.736;2022-11-20T00:38:01;9.43;;;5.93;;
30647;SDS011;17683;53.360;9.736;2022-11-20T00:40:27;8.32;;;6.38;;
30647;SDS011;17683;53.360;9.736;2022-11-20T00:42:53;10.02;;;5.88;;
30647;SDS011;17683;53.360;9.736;2022-11-20T00:45:18;12.20;;;7.90;;
30647;SDS011;17683;53.360;9.736;2022-11-20T00:47:44;9.25;;;6.03;;
30647;SDS011;17683;53.360;9.736;2022-11-20T00:50:10;7.45;;;5.60;;
30647;SDS011;17683;53.360;9.736;2022-11-20T00:52:36;7.88;;;5.72;;
30647;SDS011;17683;53.360;9.736;2022-11-20T00:55:01;8.23;;;6.22;;
30647;SDS011;17683;53.360;9.736;2022-11-20T00:57:27;11.02;;;6.00;;
30647;SDS011;17683;53.360;9.736;2022-11-20T00:59:53;7.47;;;5.30;;
30647;SDS011;17683;53.360;9.736;2022-11-20T01:02:18;9.65;;;5.45;;
30647;SDS011;17683;53.360;9.736;2022-11-20T01:04:44;9.98;;;5.82;;
30647;SDS011;17683;53.360;9.736;2022-11-20T01:07:10;8.90;;;5.90;;
30647;SDS011;17683;53.360;9.736;2022-11-20T01:09:36;9.65;;;5.80;;
30647;SDS011;17683;53.360;9.736;2022-11-20T01:12:01;9.43;;;6.25;;
30647;SDS011;17683;53.360;9.736;2022-11-20T01:14:27;9.20;;;5.78;;
30647;SDS011;17683;53.360;9.736;2022-11-20T01:16:53;8.57;;;5.00;;
30647;SDS011;17683;53.360;9.736;2022-11-20T01:19:21;8.35;;;4.90;;
30647;SDS011;17683;53.360;9.736;2022-11-20T01:21:49;9.70;;;6.00;;
30647;SDS011;17683;53.360;9.736;2022-11-20T01:24:18;7.82;;;5.75;;
30647;SDS011;17683;53.360;9.736;2022-11-20T01:26:46;8.23;;;5.90;;
30647;SDS011;17683;53.360;9.736;2022-11-20T01:29:14;8.52;;;5.95;;
30647;SDS011;17683;53.360;9.736;2022-11-20T01:31:44;8.35;;;5.47;;
30647;SDS011;17683;53.360;9.736;2022-11-20T01:34:11;8.13;;;5.40;;
30647;SDS011;17683;53.360;9.736;2022-11-20T01:36:40;7.57;;;5.32;;
30647;SDS011;17683;53.360;9.736;2022-11-20T01:39:14;9.85;;;5.32;;
30647;SDS011;17683;53.360;9.736;2022-11-20T01:41:42;6.95;;;5.28;;
30647;SDS011;17683;53.360;9.736;2022-11-20T01:47:36;8.00;;;5.43;;
30647;SDS011;17683;53.360;9.736;2022-11-20T01:50:11;10.05;;;6.38;;
30647;SDS011;17683;53.360;9.736;2022-11-20T01:53:00;8.77;;;5.25;;
30647;SDS011;17683;53.360;9.736;2022-11-20T01:55:31;8.10;;;5.22;;
30647;SDS011;17683;53.360;9.736;2022-11-20T01:58:01;8.20;;;5.15;;
30647;SDS011;17683;53.360;9.736;2022-11-20T02:00:28;8.35;;;5.10;;
30647;SDS011;17683;53.360;9.736;2022-11-20T02:02:56;8.60;;;5.35;;
30647;SDS011;17683;53.360;9.736;2022-11-20T02:05:27;10.43;;;6.20;;
30647;SDS011;17683;53.360;9.736;2022-11-20T02:07:57;6.80;;;4.70;;
30647;SDS011;17683;53.360;9.736;2022-11-20T02:10:25;9.75;;;5.95;;
30647;SDS011;17683;53.360;9.736;2022-11-20T02:12:51;6.88;;;4.93;;
30647;SDS011;17683;53.360;9.736;2022-11-20T02:18:02;10.55;;;4.63;;
30647;SDS011;17683;53.360;9.736;2022-11-20T02:20:28;7.82;;;4.95;;
30647;SDS011;17683;53.360;9.736;2022-11-20T02:22:55;10.13;;;5.50;;
30647;SDS011;17683;53.360;9.736;2022-11-20T02:25:24;7.57;;;5.10;;
30647;SDS011;17683;53.360;9.736;2022-11-20T02:27:53;8.68;;;5.10;;
30647;SDS011;17683;53.360;9.736;2022-11-20T02:30:19;9.75;;;5.78;;
30647;SDS011;17683;53.360;9.736;2022-11-20T02:32:45;9.05;;;4.90;;
30647;SDS011;17683;53.360;9.736;2022-11-20T02:37:46;8.48;;;5.40;;
30647;SDS011;17683;53.360;9.736;2022-11-20T02:40:14;8.90;;;5.45;;
30647;SDS011;17683;53.360;9.736;2022-11-20T02:42:40;7.22;;;4.60;;
30647;SDS011;17683;53.360;9.736;2022-11-20T02:45:06;8.88;;;5.10;;
30647;SDS011;17683;53.360;9.736;2022-11-20T02:47:33;7.35;;;5.25;;
30647;SDS011;17683;53.360;9.736;2022-11-20T02:49:58;11.02;;;5.43;;
30647;SDS011;17683;53.360;9.736;2022-11-20T02:52:24;8.52;;;5.20;;
30647;SDS011;17683;53.360;9.736;2022-11-20T02:54:50;10.15;;;5.93;;
30647;SDS011;17683;53.360;9.736;2022-11-20T02:57:16;10.93;;;5.80;;
30647;SDS011;17683;53.360;9.736;2022-11-20T02:59:42;7.55;;;5.43;;
30647;SDS011;17683;53.360;9.736;2022-11-20T03:02:08;8.40;;;5.07;;
30647;SDS011;17683;53.360;9.736;2022-11-20T03:04:34;7.35;;;5.80;;
30647;SDS011;17683;53.360;9.736;2022-11-20T03:06:59;8.20;;;6.07;;
30647;SDS011;17683;53.360;9.736;2022-11-20T03:09:25;7.82;;;5.22;;
30647;SDS011;17683;53.360;9.736;2022-11-20T03:11:51;7.72;;;5.35;;
30647;SDS011;17683;53.360;9.736;2022-11-20T03:14:17;10.32;;;5.80;;
30647;SDS011;17683;53.360;9.736;2022-11-20T03:16:42;8.20;;;5.45;;
30647;SDS011;17683;53.360;9.736;2022-11-20T03:19:08;8.15;;;5.47;;
30647;SDS011;17683;53.360;9.736;2022-11-20T03:21:34;7.07;;;5.20;;
30647;SDS011;17683;53.360;9.736;2022-11-20T03:24:00;6.63;;;5.40;;
30647;SDS011;17683;53.360;9.736;2022-11-20T03:26:26;8.13;;;5.25;;
30647;SDS011;17683;53.360;9.736;2022-11-20T03:28:56;9.40;;;5.43;;
30647;SDS011;17683;53.360;9.736;2022-11-20T03:31:24;7.50;;;5.18;;
30647;SDS011;17683;53.360;9.736;2022-11-20T03:33:52;6.72;;;4.90;;
30647;SDS011;17683;53.360;9.736;2022-11-20T03:36:19;7.85;;;5.57;;
30647;SDS011;17683;53.360;9.736;2022-11-20T03:38:45;6.22;;;4.63;;
30647;SDS011;17683;53.360;9.736;2022-11-20T03:41:19;8.35;;;4.82;;
30647;SDS011;17683;53.360;9.736;2022-11-20T03:43:47;5.65;;;4.93;;
30647;SDS011;17683;53.360;9.736;2022-11-20T03:46:14;9.23;;;5.07;;
30647;SDS011;17683;53.360;9.736;2022-11-20T03:48:39;7.43;;;5.57;;
30647;SDS011;17683;53.360;9.736;2022-11-20T03:51:21;13.00;;;6.45;;
30647;SDS011;17683;53.360;9.736;2022-11-20T03:53:49;9.00;;;4.80;;
30647;SDS011;17683;53.360;9.736;2022-11-20T03:56:18;7.78;;;5.25;;
30647;SDS011;17683;53.360;9.736;2022-11-20T03:58:47;7.60;;;5.22;;
30647;SDS011;17683;53.360;9.736;2022-11-20T04:01:17;7.32;;;5.10;;
30647;SDS011;17683;53.360;9.736;2022-11-20T04:03:47;9.38;;;5.20;;
30647;SDS011;17683;53.360;9.736;2022-11-20T04:06:17;8.73;;;5.50;;
30647;SDS011;17683;53.360;9.736;2022-11-20T04:08:45;10.10;;;5.50;;
30647;SDS011;17683;53.360;9.736;2022-11-20T04:11:14;6.38;;;4.80;;
30647;SDS011;17683;53.360;9.736;2022-11-20T04:13:41;7.53;;;4.90;;
30647;SDS011;17683;53.360;9.736;2022-11-20T04:16:08;7.68;;;5.22;;
30647;SDS011;17683;53.360;9.736;2022-11-20T04:18:34;9.18;;;5.43;;
30647;SDS011;17683;53.360;9.736;2022-11-20T04:21:01;7.65;;;5.22;;
30647;SDS011;17683;53.360;9.736;2022-11-20T04:23:27;7.97;;;5.65;;
30647;SDS011;17683;53.360;9.736;2022-11-20T04:25:53;7.15;;;5.07;;
30647;SDS011;17683;53.360;9.736;2022-11-20T04:28:19;7.30;;;4.70;;
30647;SDS011;17683;53.360;9.736;2022-11-20T04:30:45;8.55;;;5.38;;
30647;SDS011;17683;53.360;9.736;2022-11-20T04:33:11;8.13;;;5.90;;
30647;SDS011;17683;53.360;9.736;2022-11-20T04:35:37;9.75;;;6.18;;
30647;SDS011;17683;53.360;9.736;2022-11-20T04:38:03;7.03;;;5.50;;
30647;SDS011;17683;53.360;9.736;2022-11-20T04:40:29;8.75;;;5.50;;
30647;SDS011;17683;53.360;9.736;2022-11-20T04:42:55;9.18;;;5.45;;
30647;SDS011;17683;53.360;9.736;2022-11-20T04:45:24;8.80;;;5.85;;
30647;SDS011;17683;53.360;9.736;2022-11-20T04:47:49;12.15;;;5.43;;
30647;SDS011;17683;53.360;9.736;2022-11-20T04:50:15;8.65;;;5.53;;
30647;SDS011;17683;53.360;9.736;2022-11-20T04:52:41;8.18;;;5.63;;
30647;SDS011;17683;53.360;9.736;2022-11-20T04:55:07;7.75;;;5.15;;
30647;SDS011;17683;53.360;9.736;2022-11-20T04:57:33;8.73;;;5.18;;
30647;SDS011;17683;53.360;9.736;2022-11-20T04:59:58;11.35;;;6.00;;
30647;SDS011;17683;53.360;9.736;2022-11-20T05:02:24;9.48;;;6.00;;
30647;SDS011;17683;53.360;9.736;2022-11-20T05:04:50;10.13;;;5.80;;
30647;SDS011;17683;53.360;9.736;2022-11-20T05:07:15;6.95;;;5.28;;
30647;SDS011;17683;53.360;9.736;2022-11-20T05:09:41;7.90;;;5.82;;
30647;SDS011;17683;53.360;9.736;2022-11-20T05:12:07;10.75;;;5.57;;
30647;SDS011;17683;53.360;9.736;2022-11-20T05:14:34;10.07;;;5.20;;
30647;SDS011;17683;53.360;9.736;2022-11-20T05:16:59;8.95;;;6.30;;
30647;SDS011;17683;53.360;9.736;2022-11-20T05:19:25;8.27;;;5.60;;
30647;SDS011;17683;53.360;9.736;2022-11-20T05:21:51;8.55;;;6.13;;
30647;SDS011;17683;53.360;9.736;2022-11-20T05:24:16;8.07;;;5.55;;
30647;SDS011;17683;53.360;9.736;2022-11-20T05:26:42;7.18;;;5.90;;
30647;SDS011;17683;53.360;9.736;2022-11-20T05:29:11;10.73;;;6.28;;
30647;SDS011;17683;53.360;9.736;2022-11-20T05:31:38;7.93;;;5.63;;
30647;SDS011;17683;53.360;9.736;2022-11-20T05:34:05;11.05;;;5.80;;
30647;SDS011;17683;53.360;9.736;2022-11-20T05:36:31;7.95;;;6.13;;
30647;SDS011;17683;53.360;9.736;2022-11-20T05:38:58;9.00;;;5.78;;
30647;SDS011;17683;53.360;9.736;2022-11-20T05:41:24;10.63;;;6.88;;
30647;SDS011;17683;53.360;9.736;2022-11-20T05:43:50;11.80;;;7.45;;
30647;SDS011;17683;53.360;9.736;2022-11-20T05:46:17;9.82;;;6.78;;
30647;SDS011;17683;53.360;9.736;2022-11-20T05:48:44;9.60;;;6.60;;
30647;SDS011;17683;53.360;9.736;2022-11-20T05:51:12;9.82;;;6.10;;
30647;SDS011;17683;53.360;9.736;2022-11-20T05:53:40;10.40;;;7.28;;
30647;SDS011;17683;53.360;9.736;2022-11-20T05:56:09;9.30;;;6.47;;
30647;SDS011;17683;53.360;9.736;2022-11-20T05:58:37;10.55;;;6.53;;
30647;SDS011;17683;53.360;9.736;2022-11-20T06:03:34;9.52;;;6.15;;
30647;SDS011;17683;53.360;9.736;2022-11-20T06:06:00;9.07;;;7.05;;
30647;SDS011;17683;53.360;9.736;2022-11-20T06:08:27;8.60;;;6.38;;
30647;SDS011;17683;53.360;9.736;2022-11-20T06:10:54;11.15;;;7.15;;
30647;SDS011;17683;53.360;9.736;2022-11-20T06:13:20;10.25;;;7.38;;
30647;SDS011;17683;53.360;9.736;2022-11-20T06:15:52;8.38;;;6.20;;
30647;SDS011;17683;53.360;9.736;2022-11-20T06:18:18;10.88;;;7.13;;
30647;SDS011;17683;53.360;9.736;2022-11-20T06:20:45;11.38;;;8.27;;
30647;SDS011;17683;53.360;9.736;2022-11-20T06:23:11;10.77;;;6.80;;
30647;SDS011;17683;53.360;9.736;2022-11-20T06:25:40;10.05;;;7.28;;
30647;SDS011;17683;53.360;9.736;2022-11-20T06:28:07;9.73;;;7.20;;
30647;SDS011;17683;53.360;9.736;2022-11-20T06:30:33;11.20;;;7.82;;
30647;SDS011;17683;53.360;9.736;2022-11-20T06:32:59;15.02;;;8.95;;
30647;SDS011;17683;53.360;9.736;2022-11-20T06:35:25;12.65;;;8.00;;
30647;SDS011;17683;53.360;9.736;2022-11-20T06:37:51;11.23;;;7.65;;
30647;SDS011;17683;53.360;9.736;2022-11-20T06:40:16;12.68;;;8.27;;
30647;SDS011;17683;53.360;9.736;2022-11-20T06:42:42;11.25;;;7.15;;
30647;SDS011;17683;53.360;9.736;2022-11-20T06:45:08;10.25;;;7.60;;
30647;SDS011;17683;53.360;9.736;2022-11-20T06:47:34;10.77;;;8.25;;
30647;SDS011;17683;53.360;9.736;2022-11-20T06:50:00;11.07;;;7.57;;
30647;SDS011;17683;53.360;9.736;2022-11-20T06:52:25;12.02;;;7.82;;
30647;SDS011;17683;53.360;9.736;2022-11-20T06:54:51;14.57;;;9.27;;
30647;SDS011;17683;53.360;9.736;2022-11-20T06:57:17;12.77;;;9.15;;
30647;SDS011;17683;53.360;9.736;2022-11-20T06:59:42;12.45;;;8.73;;
30647;SDS011;17683;53.360;9.736;2022-11-20T07:02:11;11.93;;;7.85;;
30647;SDS011;17683;53.360;9.736;2022-11-20T07:04:37;16.08;;;9.02;;
30647;SDS011;17683;53.360;9.736;2022-11-20T07:07:04;14.00;;;9.35;;
30647;SDS011;17683;53.360;9.736;2022-11-20T07:09:31;14.77;;;9.35;;
30647;SDS011;17683;53.360;9.736;2022-11-20T07:11:57;15.60;;;8.82;;
30647;SDS011;17683;53.360;9.736;2022-11-20T07:14:22;14.68;;;9.73;;
30647;SDS011;17683;53.360;9.736;2022-11-20T07:16:48;15.48;;;9.27;;
30647;SDS011;17683;53.360;9.736;2022-11-20T07:19:14;11.77;;;9.07;;
30647;SDS011;17683;53.360;9.736;2022-11-20T07:21:40;15.68;;;10.35;;
30647;SDS011;17683;53.360;9.736;2022-11-20T07:24:05;14.65;;;10.13;;
30647;SDS011;17683;53.360;9.736;2022-11-20T07:26:31;14.80;;;9.55;;
30647;SDS011;17683;53.360;9.736;2022-11-20T07:28:57;15.00;;;9.40;;
30647;SDS011;17683;53.360;9.736;2022-11-20T07:31:23;15.55;;;10.52;;
30647;SDS011;17683;53.360;9.736;2022-11-20T07:33:48;15.48;;;10.82;;
30647;SDS011;17683;53.360;9.736;2022-11-20T07:36:14;15.70;;;10.15;;
30647;SDS011;17683;53.360;9.736;2022-11-20T07:38:40;16.60;;;9.10;;
30647;SDS011;17683;53.360;9.736;2022-11-20T07:41:06;13.27;;;9.52;;
30647;SDS011;17683;53.360;9.736;2022-11-20T07:43:31;13.98;;;9.98;;
30647;SDS011;17683;53.360;9.736;2022-11-20T07:45:58;13.63;;;9.95;;
30647;SDS011;17683;53.360;9.736;2022-11-20T07:48:24;15.77;;;10.80;;
30647;SDS011;17683;53.360;9.736;2022-11-20T07:50:53;13.82;;;9.82;;
30647;SDS011;17683;53.360;9.736;2022-11-20T07:53:22;16.13;;;11.52;;
30647;SDS011;17683;53.360;9.736;2022-11-20T07:55:48;15.90;;;10.90;;
30647;SDS011;17683;53.360;9.736;2022-11-20T07:58:17;15.85;;;11.00;;
30647;SDS011;17683;53.360;9.736;2022-11-20T08:00:44;16.25;;;12.05;;
30647;SDS011;17683;53.360;9.736;2022-11-20T08:03:09;15.13;;;11.18;;
30647;SDS011;17683;53.360;9.736;2022-11-20T08:05:35;17.90;;;11.20;;
30647;SDS011;17683;53.360;9.736;2022-11-20T08:08:02;13.82;;;10.25;;
30647;SDS011;17683;53.360;9.736;2022-11-20T08:10:28;15.82;;;10.73;;
30647;SDS011;17683;53.360;9.736;2022-11-20T08:12:54;16.73;;;10.80;;
30647;SDS011;17683;53.360;9.736;2022-11-20T08:15:39;19.35;;;10.82;;
30647;SDS011;17683;53.360;9.736;2022-11-20T08:18:06;17.30;;;10.57;;
30647;SDS011;17683;53.360;9.736;2022-11-20T08:20:34;17.35;;;10.98;;
30647;SDS011;17683;53.360;9.736;2022-11-20T08:23:00;16.98;;;11.57;;
30647;SDS011;17683;53.360;9.736;2022-11-20T08:25:28;17.40;;;11.88;;
30647;SDS011;17683;53.360;9.736;2022-11-20T08:27:58;17.65;;;12.02;;
30647;SDS011;17683;53.360;9.736;2022-11-20T08:30:25;17.67;;;10.80;;
30647;SDS011;17683;53.360;9.736;2022-11-20T08:32:52;16.02;;;10.23;;
30647;SDS011;17683;53.360;9.736;2022-11-20T08:35:19;19.27;;;11.88;;
30647;SDS011;17683;53.360;9.736;2022-11-20T08:37:48;16.67;;;10.90;;
30647;SDS011;17683;53.360;9.736;2022-11-20T08:40:14;16.08;;;10.73;;
30647;SDS011;17683;53.360;9.736;2022-11-20T08:42:47;17.15;;;11.38;;
30647;SDS011;17683;53.360;9.736;2022-11-20T08:45:14;15.70;;;10.98;;
30647;SDS011;17683;53.360;9.736;2022-11-20T08:47:41;15.15;;;11.00;;
30647;SDS011;17683;53.360;9.736;2022-11-20T08:50:07;15.38;;;10.43;;
30647;SDS011;17683;53.360;9.736;2022-11-20T08:52:34;17.13;;;10.45;;
30647;SDS011;17683;53.360;9.736;2022-11-20T08:55:00;14.65;;;10.45;;
30647;SDS011;17683;53.360;9.736;2022-11-20T08:57:26;15.13;;;9.70;;
30647;SDS011;17683;53.360;9.736;2022-11-20T08:59:51;16.02;;;10.05;;
30647;SDS011;17683;53.360;9.736;2022-11-20T09:02:17;14.60;;;10.50;;
30647;SDS011;17683;53.360;9.736;2022-11-20T09:04:43;13.18;;;10.00;;
30647;SDS011;17683;53.360;9.736;2022-11-20T09:07:09;16.70;;;11.32;;
30647;SDS011;17683;53.360;9.736;2022-11-20T09:09:34;13.60;;;10.27;;
30647;SDS011;17683;53.360;9.736;2022-11-20T09:12:00;14.18;;;9.73;;
30647;SDS011;17683;53.360;9.736;2022-11-20T09:14:26;15.95;;;10.48;;
30647;SDS011;17683;53.360;9.736;2022-11-20T09:16:54;15.88;;;10.32;;
30647;SDS011;17683;53.360;9.736;2022-11-20T09:19:20;13.45;;;9.57;;
30647;SDS011;17683;53.360;9.736;2022-11-20T09:21:46;14.02;;;9.77;;
30647;SDS011;17683;53.360;9.736;2022-11-20T09:24:12;14.43;;;11.05;;
30647;SDS011;17683;53.360;9.736;2022-11-20T09:26:38;14.30;;;9.75;;
30647;SDS011;17683;53.360;9.736;2022-11-20T09:29:03;14.75;;;9.55;;
30647;SDS011;17683;53.360;9.736;2022-11-20T09:31:29;14.27;;;9.65;;
30647;SDS011;17683;53.360;9.736;2022-11-20T09:33:55;14.35;;;10.07;;
30647;SDS011;17683;53.360;9.736;2022-11-20T09:36:20;17.10;;;9.73;;
30647;SDS011;17683;53.360;9.736;2022-11-20T09:38:46;14.10;;;10.07;;
30647;SDS011;17683;53.360;9.736;2022-11-20T09:46:38;13.20;;;10.00;;
30647;SDS011;17683;53.360;9.736;2022-11-20T09:49:26;17.08;;;9.00;;
30647;SDS011;17683;53.360;9.736;2022-11-20T09:52:00;13.00;;;8.75;;
30647;SDS011;17683;53.360;9.736;2022-11-20T09:54:38;13.60;;;9.07;;
30647;SDS011;17683;53.360;9.736;2022-11-20T09:57:09;10.88;;;7.80;;
30647;SDS011;17683;53.360;9.736;2022-11-20T09:59:39;13.10;;;8.90;;
30647;SDS011;17683;53.360;9.736;2022-11-20T10:02:15;13.68;;;8.48;;
30647;SDS011;17683;53.360;9.736;2022-11-20T10:04:55;12.85;;;9.20;;
30647;SDS011;17683;53.360;9.736;2022-11-20T10:10:33;12.88;;;8.07;;
30647;SDS011;17683;53.360;9.736;2022-11-20T10:15:45;9.52;;;7.82;;
30647;SDS011;17683;53.360;9.736;2022-11-20T10:24:21;12.02;;;9.48;;
30647;SDS011;17683;53.360;9.736;2022-11-20T10:29:45;11.35;;;8.40;;
30647;SDS011;17683;53.360;9.736;2022-11-20T10:32:29;12.90;;;8.20;;
30647;SDS011;17683;53.360;9.736;2022-11-20T10:35:21;9.43;;;8.00;;
30647;SDS011;17683;53.360;9.736;2022-11-20T10:37:51;10.88;;;7.57;;
30647;SDS011;17683;53.360;9.736;2022-11-20T10:40:35;9.82;;;6.55;;
30647;SDS011;17683;53.360;9.736;2022-11-20T10:43:50;10.25;;;7.50;;
30647;SDS011;17683;53.360;9.736;2022-11-20T10:46:43;9.02;;;6.57;;
30647;SDS011;17683;53.360;9.736;2022-11-20T10:49:16;8.88;;;6.85;;
30647;SDS011;17683;53.360;9.736;2022-11-20T10:51:50;6.93;;;5.55;;
30647;SDS011;17683;53.360;9.736;2022-11-20T10:54:47;8.43;;;6.00;;
30647;SDS011;17683;53.360;9.736;2022-11-20T11:04:46;7.13;;;5.65;;
30647;SDS011;17683;53.360;9.736;2022-11-20T11:07:29;6.85;;;5.60;;
30647;SDS011;17683;53.360;9.736;2022-11-20T11:10:00;7.13;;;5.70;;
30647;SDS011;17683;53.360;9.736;2022-11-20T11:12:27;9.90;;;5.60;;
30647;SDS011;17683;53.360;9.736;2022-11-20T11:14:57;8.80;;;5.80;;
30647;SDS011;17683;53.360;9.736;2022-11-20T11:17:30;6.95;;;5.72;;
30647;SDS011;17683;53.360;9.736;2022-11-20T11:20:01;8.90;;;5.47;;
30647;SDS011;17683;53.360;9.736;2022-11-20T11:22:29;8.00;;;5.47;;
30647;SDS011;17683;53.360;9.736;2022-11-20T11:24:57;6.85;;;5.30;;
30647;SDS011;17683;53.360;9.736;2022-11-20T11:27:23;7.15;;;4.80;;
30647;SDS011;17683;53.360;9.736;2022-11-20T11:29:49;6.63;;;5.03;;
30647;SDS011;17683;53.360;9.736;2022-11-20T11:32:17;6.68;;;4.72;;
30647;SDS011;17683;53.360;9.736;2022-11-20T11:34:58;5.88;;;4.20;;
30647;SDS011;17683;53.360;9.736;2022-11-20T11:37:32;6.55;;;4.60;;
30647;SDS011;17683;53.360;9.736;2022-11-20T11:40:01;6.90;;;3.92;;
30647;SDS011;17683;53.360;9.736;2022-11-20T11:42:28;5.28;;;4.03;;
30647;SDS011;17683;53.360;9.736;2022-11-20T11:44:56;4.25;;;3.72;;
30647;SDS011;17683;53.360;9.736;2022-11-20T12:00:58;4.80;;;3.97;;
30647;SDS011;17683;53.360;9.736;2022-11-20T12:03:37;5.95;;;4.15;;
30647;SDS011;17683;53.360;9.736;2022-11-20T12:06:09;6.07;;;3.47;;
30647;SDS011;17683;53.360;9.736;2022-11-20T12:08:43;4.75;;;3.97;;
30647;SDS011;17683;53.360;9.736;2022-11-20T12:14:21;6.50;;;4.55;;
30647;SDS011;17683;53.360;9.736;2022-11-20T12:16:54;8.05;;;4.82;;
30647;SDS011;17683;53.360;9.736;2022-11-20T12:19:22;10.25;;;5.60;;
30647;SDS011;17683;53.360;9.736;2022-11-20T12:21:58;5.30;;;3.60;;
30647;SDS011;17683;53.360;9.736;2022-11-20T12:30:11;4.53;;;3.38;;
30647;SDS011;17683;53.360;9.736;2022-11-20T12:41:28;5.68;;;4.28;;
30647;SDS011;17683;53.360;9.736;2022-11-20T12:44:48;5.75;;;4.43;;
30647;SDS011;17683;53.360;9.736;2022-11-20T12:50:32;5.35;;;4.53;;
30647;SDS011;17683;53.360;9.736;2022-11-20T12:53:11;5.45;;;3.80;;
30647;SDS011;17683;53.360;9.736;2022-11-20T13:05:24;5.78;;;3.90;;
30647;SDS011;17683;53.360;9.736;2022-11-20T13:08:23;4.55;;;3.58;;
30647;SDS011;17683;53.360;9.736;2022-11-20T13:10:56;5.20;;;4.38;;
30647;SDS011;17683;53.360;9.736;2022-11-20T13:18:51;7.28;;;4.05;;
30647;SDS011;17683;53.360;9.736;2022-11-20T13:21:18;7.22;;;4.05;;
30647;SDS011;17683;53.360;9.736;2022-11-20T13:24:06;5.30;;;3.70;;
30647;SDS011;17683;53.360;9.736;2022-11-20T13:26:33;7.57;;;4.68;;
30647;SDS011;17683;53.360;9.736;2022-11-20T13:29:09;4.35;;;3.90;;
30647;SDS011;17683;53.360;9.736;2022-11-20T13:31:43;3.95;;;2.85;;
30647;SDS011;17683;53.360;9.736;2022-11-20T13:34:29;3.30;;;2.88;;
30647;SDS011;17683;53.360;9.736;2022-11-20T13:36:57;4.03;;;3.05;;
30647;SDS011;17683;53.360;9.736;2022-11-20T13:39:35;7.10;;;3.33;;
30647;SDS011;17683;53.360;9.736;2022-11-20T13:42:25;3.72;;;2.78;;
30647;SDS011;17683;53.360;9.736;2022-11-20T13:44:53;3.80;;;2.92;;
30647;SDS011;17683;53.360;9.736;2022-11-20T13:47:21;4.47;;;3.15;;
30647;SDS011;17683;53.360;9.736;2022-11-20T13:49:49;4.50;;;3.25;;
30647;SDS011;17683;53.360;9.736;2022-11-20T14:02:48;4.03;;;3.00;;
30647;SDS011;17683;53.360;9.736;2022-11-20T14:05:34;4.32;;;3.03;;
30647;SDS011;17683;53.360;9.736;2022-11-20T14:08:17;3.95;;;3.17;;
30647;SDS011;17683;53.360;9.736;2022-11-20T14:11:02;3.70;;;3.28;;
30647;SDS011;17683;53.360;9.736;2022-11-20T14:13:37;3.88;;;3.10;;
30647;SDS011;17683;53.360;9.736;2022-11-20T14:16:03;5.28;;;3.28;;
30647;SDS011;17683;53.360;9.736;2022-11-20T14:18:28;3.38;;;2.78;;
30647;SDS011;17683;53.360;9.736;2022-11-20T14:20:54;4.25;;;3.10;;
30647;SDS011;17683;53.360;9.736;2022-11-20T14:23:26;4.60;;;3.33;;
30647;SDS011;17683;53.360;9.736;2022-11-20T14:25:53;3.28;;;2.97;;
30647;SDS011;17683;53.360;9.736;2022-11-20T14:28:22;3.40;;;3.10;;
30647;SDS011;17683;53.360;9.736;2022-11-20T14:30:54;3.72;;;3.00;;
30647;SDS011;17683;53.360;9.736;2022-11-20T14:33:21;4.20;;;2.88;;
30647;SDS011;17683;53.360;9.736;2022-11-20T14:35:54;5.13;;;3.53;;
30647;SDS011;17683;53.360;9.736;2022-11-20T14:38:23;4.43;;;3.42;;
30647;SDS011;17683;53.360;9.736;2022-11-20T14:40:52;3.30;;;3.00;;
30647;SDS011;17683;53.360;9.736;2022-11-20T14:43:20;5.97;;;3.67;;
30647;SDS011;17683;53.360;9.736;2022-11-20T14:46:07;5.78;;;3.15;;
30647;SDS011;17683;53.360;9.736;2022-11-20T14:48:40;3.90;;;3.50;;
30647;SDS011;17683;53.360;9.736;2022-11-20T14:51:09;5.53;;;3.72;;
30647;SDS011;17683;53.360;9.736;2022-11-20T14:53:36;4.45;;;3.88;;
30647;SDS011;17683;53.360;9.736;2022-11-20T14:56:02;5.28;;;4.38;;
30647;SDS011;17683;53.360;9.736;2022-11-20T14:58:32;5.97;;;4.85;;
30647;SDS011;17683;53.360;9.736;2022-11-20T15:01:03;5.03;;;3.70;;
30647;SDS011;17683;53.360;9.736;2022-11-20T15:03:31;4.32;;;3.47;;
30647;SDS011;17683;53.360;9.736;2022-11-20T15:06:05;5.57;;;4.25;;
30647;SDS011;17683;53.360;9.736;2022-11-20T15:08:32;4.78;;;3.83;;
30647;SDS011;17683;53.360;9.736;2022-11-20T15:10:59;4.82;;;3.65;;
30647;SDS011;17683;53.360;9.736;2022-11-20T15:13:31;5.63;;;4.22;;
30647;SDS011;17683;53.360;9.736;2022-11-20T15:16:03;4.78;;;4.13;;
30647;SDS011;17683;53.360;9.736;2022-11-20T15:18:39;5.85;;;4.63;;
30647;SDS011;17683;53.360;9.736;2022-11-20T15:21:15;5.30;;;4.55;;
30647;SDS011;17683;53.360;9.736;2022-11-20T15:23:43;4.63;;;3.92;;
30647;SDS011;17683;53.360;9.736;2022-11-20T15:26:10;4.95;;;4.28;;
30647;SDS011;17683;53.360;9.736;2022-11-20T15:28:47;5.30;;;4.78;;
30647;SDS011;17683;53.360;9.736;2022-11-20T15:31:15;6.38;;;5.18;;
30647;SDS011;17683;53.360;9.736;2022-11-20T15:33:44;7.25;;;5.30;;
30647;SDS011;17683;53.360;9.736;2022-11-20T15:36:10;4.72;;;4.20;;
30647;SDS011;17683;53.360;9.736;2022-11-20T15:38:36;6.47;;;5.03;;
30647;SDS011;17683;53.360;9.736;2022-11-20T15:41:01;6.75;;;5.07;;
30647;SDS011;17683;53.360;9.736;2022-11-20T15:43:27;6.45;;;5.03;;
30647;SDS011;17683;53.360;9.736;2022-11-20T15:45:54;6.55;;;4.57;;
30647;SDS011;17683;53.360;9.736;2022-11-20T15:48:30;6.47;;;4.68;;
30647;SDS011;17683;53.360;9.736;2022-11-20T15:53:35;6.75;;;5.07;;
30647;SDS011;17683;53.360;9.736;2022-11-20T15:56:01;6.82;;;4.95;;
30647;SDS011;17683;53.360;9.736;2022-11-20T15:58:27;7.63;;;4.85;;
30647;SDS011;17683;53.360;9.736;2022-11-20T16:00:53;5.70;;;4.60;;
30647;SDS011;17683;53.360;9.736;2022-11-20T16:03:19;5.90;;;4.78;;
30647;SDS011;17683;53.360;9.736;2022-11-20T16:05:45;5.78;;;4.72;;
30647;SDS011;17683;53.360;9.736;2022-11-20T16:08:11;6.85;;;5.30;;
30647;SDS011;17683;53.360;9.736;2022-11-20T16:10:38;7.90;;;5.10;;
30647;SDS011;17683;53.360;9.736;2022-11-20T16:13:04;7.05;;;4.32;;
30647;SDS011;17683;53.360;9.736;2022-11-20T16:16:03;6.60;;;5.07;;
30647;SDS011;17683;53.360;9.736;2022-11-20T16:18:36;6.53;;;5.18;;
30647;SDS011;17683;53.360;9.736;2022-11-20T16:21:02;8.38;;;5.32;;
30647;SDS011;17683;53.360;9.736;2022-11-20T16:23:28;7.55;;;4.80;;
30647;SDS011;17683;53.360;9.736;2022-11-20T16:25:54;6.97;;;4.88;;
30647;SDS011;17683;53.360;9.736;2022-11-20T16:28:19;7.82;;;5.45;;
30647;SDS011;17683;53.360;9.736;2022-11-20T16:30:45;9.02;;;6.63;;
30647;SDS011;17683;53.360;9.736;2022-11-20T16:33:12;11.35;;;6.93;;